Terminal Aerodrome Forecast
Issued by NWS Lubbock, TX

Home | Current Version | Previous Version | Text Only | Print | Product List | Glossary On
Versions: 1 2 3 4 5 6 7 8 9 10 11 12 13 14 15 16 17
165
FTUS44 KLUB 271122
TAFLBB
TAF
KLBB 271122Z 2712/2812 15009KT P6SM FEW120 SCT250
     FM271400 22016KT P6SM BKN250
     FM271800 25025G37KT P6SM SCT120 BKN250
     FM280100 24011KT P6SM SCT100 BKN250
     FM280300 33011KT P6SM BKN100 BKN250=

USA.gov is the U.S. government's official web portal to all federal, state and local government web resources and services.